Time;durP1;ratioP1;P1;durP2;ratioP2;P2;SDS_P1;SDS_P2;PMS_P1;PMS_P2;Temp;Humidity;BMP_temperature;BMP_pressure;BME280_temperature;BME280_humidity;BME280_pressure;Samples;Min_cycle;Max_cycle;Signal;HPM_P1;HPM_P2
2023/10/13 00:01:59;;;;;;;17.70;8.38;;;;;;;;;;4997740;28;20026;-68
2023/10/13 00:04:25;;;;;;;14.73;7.90;;;;;;;;;;4996660;28;20026;-65
2023/10/13 00:06:51;;;;;;;13.98;7.57;;;;;;;;;;4996528;28;20022;-69
2023/10/13 00:09:16;;;;;;;13.88;8.02;;;;;;;;;;4994817;28;20010;-67
2023/10/13 00:11:44;;;;;;;17.90;8.32;;;;;;;;;;4998244;28;20112;-65
2023/10/13 00:14:09;;;;;;;16.63;7.57;;;;;;;;;;4996759;28;20094;-67
2023/10/13 00:16:38;;;;;;;18.08;8.07;;;;;;;;;;4997040;28;20666;-66
2023/10/13 00:19:05;;;;;;;17.17;8.02;;;;;;;;;;4995694;28;20072;-67
2023/10/13 00:21:31;;;;;;;18.05;7.40;;;;;;;;;;4996203;28;20034;-66
2023/10/13 00:23:56;;;;;;;15.18;7.35;;;;;;;;;;5002506;28;20026;-66
2023/10/13 00:26:28;;;;;;;12.75;7.13;;;;;;;;;;5003566;28;20078;-66
2023/10/13 00:29:09;;;;;;;18.05;7.85;;;;;;;;;;4998323;28;20018;-66
2023/10/13 00:31:40;;;;;;;16.63;7.38;;;;;;;;;;4999903;28;20093;-65
2023/10/13 00:34:28;;;;;;;15.20;8.20;;;;;;;;;;4993769;28;20034;-66
2023/10/13 00:39:36;;;;;;;15.88;7.28;;;;;;;;;;4991428;28;20042;-66
2023/10/13 00:42:06;;;;;;;15.02;7.55;;;;;;;;;;4996280;28;20539;-68
2023/10/13 00:44:41;;;;;;;16.95;7.18;;;;;;;;;;4997749;28;20109;-67
2023/10/13 00:47:09;;;;;;;16.05;8.07;;;;;;;;;;4997780;28;20535;-66
2023/10/13 00:49:39;;;;;;;13.00;7.32;;;;;;;;;;4990020;28;20109;-66
2023/10/13 00:52:05;;;;;;;13.05;6.60;;;;;;;;;;4997670;28;20407;-66
2023/10/13 00:54:30;;;;;;;16.38;7.43;;;;;;;;;;4983612;28;20026;-66
2023/10/13 00:57:04;;;;;;;13.15;7.38;;;;;;;;;;4999680;28;20026;-64
2023/10/13 00:59:33;;;;;;;12.38;7.05;;;;;;;;;;4995594;28;20141;-64
2023/10/13 01:02:06;;;;;;;13.18;7.53;;;;;;;;;;4991789;28;20051;-65
2023/10/13 01:04:33;;;;;;;14.32;7.38;;;;;;;;;;4991316;28;20057;-64
2023/10/13 01:06:59;;;;;;;12.27;6.15;;;;;;;;;;4994402;28;20054;-65
2023/10/13 01:09:24;;;;;;;14.20;7.80;;;;;;;;;;5007412;28;20058;-66
2023/10/13 01:11:54;;;;;;;14.85;6.47;;;;;;;;;;4993938;28;20022;-65
2023/10/13 01:14:20;;;;;;;20.42;7.13;;;;;;;;;;5000929;28;20051;-64
2023/10/13 01:16:46;;;;;;;13.95;6.57;;;;;;;;;;4998727;28;20111;-66
2023/10/13 01:19:18;;;;;;;14.73;5.97;;;;;;;;;;4994771;28;20065;-65
2023/10/13 01:21:47;;;;;;;14.95;6.07;;;;;;;;;;4993293;28;20026;-66
2023/10/13 01:24:13;;;;;;;15.80;6.50;;;;;;;;;;4994515;28;20022;-66
2023/10/13 01:26:39;;;;;;;12.57;6.10;;;;;;;;;;4998279;28;20426;-69
2023/10/13 01:29:12;;;;;;;9.60;5.90;;;;;;;;;;4995913;28;20584;-67
2023/10/13 01:31:46;;;;;;;11.65;6.68;;;;;;;;;;4994963;28;20019;-68
2023/10/13 01:34:22;;;;;;;14.63;7.22;;;;;;;;;;4982319;28;20029;-67
2023/10/13 01:36:53;;;;;;;14.55;6.47;;;;;;;;;;4989283;28;20451;-67
2023/10/13 01:39:20;;;;;;;12.68;6.93;;;;;;;;;;4983563;28;20065;-69
2023/10/13 01:41:45;;;;;;;11.90;5.85;;;;;;;;;;4997476;28;20474;-67
2023/10/13 01:44:11;;;;;;;12.98;7.30;;;;;;;;;;4997652;28;20032;-68
2023/10/13 01:46:37;;;;;;;12.82;6.65;;;;;;;;;;4999689;28;20075;-65
2023/10/13 01:49:02;;;;;;;19.52;6.90;;;;;;;;;;4995486;28;20182;-67
2023/10/13 01:51:28;;;;;;;17.63;6.88;;;;;;;;;;4999504;28;20105;-68
2023/10/13 01:53:56;;;;;;;12.73;6.43;;;;;;;;;;4997101;28;20458;-66
2023/10/13 01:56:23;;;;;;;14.65;7.32;;;;;;;;;;4988963;28;20022;-67
2023/10/13 01:58:48;;;;;;;14.85;7.75;;;;;;;;;;4996829;28;20034;-66
2023/10/13 02:01:13;;;;;;;17.73;7.18;;;;;;;;;;4992469;28;20026;-67
2023/10/13 02:03:46;;;;;;;11.85;6.30;;;;;;;;;;4990844;28;20109;-65
2023/10/13 02:06:16;;;;;;;10.70;6.03;;;;;;;;;;4993310;28;20022;-67
2023/10/13 02:08:43;;;;;;;16.55;5.85;;;;;;;;;;5000504;28;20514;-66
2023/10/13 02:11:09;;;;;;;16.20;6.38;;;;;;;;;;4995048;28;20078;-67
2023/10/13 02:13:41;;;;;;;10.55;5.85;;;;;;;;;;4992173;28;20482;-67
2023/10/13 02:16:07;;;;;;;14.38;5.75;;;;;;;;;;4993573;28;20102;-64
2023/10/13 02:18:41;;;;;;;15.93;5.75;;;;;;;;;;5003433;28;20551;-67
2023/10/13 02:21:12;;;;;;;15.35;5.75;;;;;;;;;;4995974;28;20018;-64
2023/10/13 02:23:43;;;;;;;13.65;6.00;;;;;;;;;;4997596;28;20037;-66
2023/10/13 02:26:50;;;;;;;10.95;5.47;;;;;;;;;;4980113;28;20022;-66
2023/10/13 02:29:03;;;;;;;9.98;5.85;;;;;;;;;;4994606;28;20069;-68
2023/10/13 02:31:28;;;;;;;9.63;5.93;;;;;;;;;;4983356;28;20046;-68
2023/10/13 02:33:53;;;;;;;14.15;6.40;;;;;;;;;;4983888;28;20105;-67
2023/10/13 02:36:22;;;;;;;11.20;6.03;;;;;;;;;;4989715;28;20018;-69
2023/10/13 02:38:47;;;;;;;;;;;;;;;;;;4963261;28;20018;-66
2023/10/13 02:41:28;;;;;;;10.93;5.82;;;;;;;;;;4989192;28;19909;-64
2023/10/13 02:43:54;;;;;;;13.70;5.43;;;;;;;;;;4986450;28;20044;-65
2023/10/13 02:46:21;;;;;;;11.77;5.32;;;;;;;;;;4985979;28;20041;-67
2023/10/13 02:48:52;;;;;;;14.13;5.30;;;;;;;;;;4998875;28;20739;-65
2023/10/13 02:51:18;;;;;;;14.43;5.78;;;;;;;;;;5007545;28;20405;-64
2023/10/13 02:53:47;;;;;;;13.45;5.90;;;;;;;;;;4991855;28;20516;-70
2023/10/13 02:56:13;;;;;;;9.40;5.03;;;;;;;;;;4988473;28;20022;-67
2023/10/13 02:58:38;;;;;;;9.80;5.07;;;;;;;;;;4997134;28;20018;-66
2023/10/13 03:01:10;;;;;;;9.73;4.97;;;;;;;;;;5004849;28;20563;-68
2023/10/13 03:03:35;;;;;;;10.20;5.75;;;;;;;;;;4988490;28;20048;-65
2023/10/13 03:06:00;;;;;;;11.23;5.30;;;;;;;;;;5003649;28;20026;-67
2023/10/13 03:08:27;;;;;;;12.32;5.57;;;;;;;;;;5001948;28;20067;-65
2023/10/13 03:10:54;;;;;;;12.25;5.60;;;;;;;;;;4995887;28;20382;-66
2023/10/13 03:13:19;;;;;;;13.50;5.35;;;;;;;;;;4991240;28;20018;-67
2023/10/13 03:15:47;;;;;;;9.45;5.15;;;;;;;;;;4994844;28;20023;-66
2023/10/13 03:18:18;;;;;;;12.87;6.57;;;;;;;;;;4992342;28;20064;-68
2023/10/13 03:20:43;;;;;;;13.77;5.45;;;;;;;;;;5001979;28;20552;-67
2023/10/13 03:23:09;;;;;;;13.00;5.72;;;;;;;;;;4995500;28;20596;-66
2023/10/13 03:25:42;;;;;;;22.50;7.55;;;;;;;;;;4994051;28;20040;-68
2023/10/13 03:28:10;;;;;;;13.13;6.57;;;;;;;;;;4998982;28;20484;-67
2023/10/13 03:30:35;;;;;;;13.27;6.82;;;;;;;;;;4992287;28;20493;-66
2023/10/13 03:33:07;;;;;;;16.27;7.75;;;;;;;;;;4983523;28;20084;-68
2023/10/13 03:35:42;;;;;;;17.80;8.50;;;;;;;;;;4987313;28;20426;-68
2023/10/13 03:38:14;;;;;;;22.45;9.10;;;;;;;;;;4983243;28;20021;-65
2023/10/13 03:40:40;;;;;;;18.52;8.90;;;;;;;;;;4994318;28;20176;-65
2023/10/13 03:43:07;;;;;;;19.90;9.02;;;;;;;;;;4986066;28;20109;-66
2023/10/13 03:45:39;;;;;;;20.85;9.35;;;;;;;;;;4992244;28;20139;-66
2023/10/13 03:48:09;;;;;;;21.58;8.57;;;;;;;;;;4989271;28;20433;-67
2023/10/13 03:50:36;;;;;;;15.02;8.43;;;;;;;;;;4974346;28;20049;-65
2023/10/13 03:53:01;;;;;;;16.75;8.45;;;;;;;;;;4986566;28;20022;-67
2023/10/13 03:55:28;;;;;;;14.10;8.55;;;;;;;;;;4973933;28;20029;-67
2023/10/13 03:57:54;;;;;;;19.98;8.73;;;;;;;;;;4990706;28;20032;-67
2023/10/13 04:00:23;;;;;;;18.60;8.23;;;;;;;;;;4997107;28;20017;-67
2023/10/13 04:03:03;;;;;;;14.52;7.45;;;;;;;;;;4991032;28;20015;-67
2023/10/13 04:06:16;;;;;;;15.57;8.05;;;;;;;;;;4984710;28;20454;-67
2023/10/13 04:16:34;;;;;;;18.95;8.20;;;;;;;;;;4999645;28;20101;-69
2023/10/13 04:21:41;;;;;;;20.70;8.05;;;;;;;;;;5000864;28;20071;-66
2023/10/13 04:32:28;;;;;;;16.83;7.00;;;;;;;;;;4989293;28;20026;-66
2023/10/13 04:35:08;;;;;;;13.27;7.03;;;;;;;;;;4989644;28;20940;-68
2023/10/13 04:37:48;;;;;;;12.63;6.95;;;;;;;;;;4990052;28;20026;-68
2023/10/13 04:40:14;;;;;;;14.45;7.18;;;;;;;;;;4968569;28;20498;-68
2023/10/13 04:42:49;;;;;;;13.50;6.70;;;;;;;;;;4991717;28;20026;-65
2023/10/13 04:48:38;;;;;;;16.45;7.00;;;;;;;;;;4997670;28;20038;-67
2023/10/13 04:50:53;;;;;;;13.30;6.28;;;;;;;;;;4999179;28;20031;-66
2023/10/13 04:53:33;;;;;;;12.82;6.78;;;;;;;;;;4996414;28;20029;-64
2023/10/13 06:31:02;;;;;;;17.88;7.55;;;;;;;;;;4998722;28;20119;-69
2023/10/13 06:33:33;;;;;;;16.88;8.75;;;;;;;;;;4988494;28;20042;-68
2023/10/13 06:35:59;;;;;;;15.93;8.38;;;;;;;;;;4978948;28;20029;-66
2023/10/13 06:38:24;;;;;;;16.33;7.85;;;;;;;;;;4990953;28;20038;-68
2023/10/13 06:40:52;;;;;;;15.20;8.15;;;;;;;;;;4989199;28;20031;-67
2023/10/13 06:43:17;;;;;;;16.90;7.53;;;;;;;;;;4997692;28;20037;-67
2023/10/13 06:45:43;;;;;;;16.38;7.72;;;;;;;;;;5008594;28;20029;-67
2023/10/13 06:48:13;;;;;;;15.95;8.10;;;;;;;;;;4995272;28;20041;-67
2023/10/13 06:50:41;;;;;;;17.35;8.50;;;;;;;;;;4995008;28;20018;-67
2023/10/13 06:53:06;;;;;;;16.40;8.40;;;;;;;;;;4992185;28;20360;-68
2023/10/13 06:55:35;;;;;;;18.05;7.30;;;;;;;;;;4996064;28;20015;-68
2023/10/13 06:58:01;;;;;;;14.43;7.40;;;;;;;;;;4983676;28;20116;-66
2023/10/13 07:00:29;;;;;;;19.75;8.07;;;;;;;;;;4988972;28;20475;-70
2023/10/13 07:03:05;;;;;;;16.02;8.48;;;;;;;;;;4997887;28;20022;-67
2023/10/13 07:05:32;;;;;;;18.10;7.82;;;;;;;;;;4987289;28;20034;-67
2023/10/13 07:07:59;;;;;;;15.00;7.22;;;;;;;;;;4992599;28;20038;-69
2023/10/13 07:10:29;;;;;;;14.95;7.28;;;;;;;;;;4993731;28;20042;-65
2023/10/13 07:12:59;;;;;;;17.48;7.47;;;;;;;;;;4997122;28;20026;-67
2023/10/13 07:15:29;;;;;;;12.35;7.22;;;;;;;;;;4994803;28;20081;-68
2023/10/13 07:17:56;;;;;;;19.52;7.35;;;;;;;;;;4989064;28;20026;-66
2023/10/13 07:20:33;;;;;;;21.90;6.55;;;;;;;;;;4989595;28;20350;-67
2023/10/13 07:23:05;;;;;;;14.90;6.40;;;;;;;;;;4987804;28;20018;-69
2023/10/13 07:25:37;;;;;;;13.80;6.07;;;;;;;;;;4996779;23;20046;-70
2023/10/13 07:28:08;;;;;;;14.10;6.65;;;;;;;;;;5020616;28;20416;-69
2023/10/13 07:30:39;;;;;;;15.32;6.20;;;;;;;;;;5019041;28;20405;-70
2023/10/13 07:33:05;;;;;;;15.00;6.63;;;;;;;;;;5007409;28;20032;-70
2023/10/13 07:35:35;;;;;;;14.23;5.57;;;;;;;;;;5014611;28;20022;-69
2023/10/13 07:38:01;;;;;;;14.77;5.80;;;;;;;;;;5021209;28;20037;-67
2023/10/13 07:43:00;;;;;;;8.80;5.03;;;;;;;;;;5027284;28;20025;-69
2023/10/13 07:45:35;;;;;;;12.68;5.18;;;;;;;;;;5029610;28;20381;-69
2023/10/13 07:48:18;;;;;;;10.68;5.40;;;;;;;;;;5024700;28;20038;-67
2023/10/13 07:50:45;;;;;;;14.35;6.55;;;;;;;;;;5027799;28;20022;-68
2023/10/13 07:53:22;;;;;;;18.30;5.88;;;;;;;;;;5029135;28;20437;-70
2023/10/13 07:55:49;;;;;;;9.90;5.40;;;;;;;;;;5024720;28;20101;-69
2023/10/13 07:58:14;;;;;;;11.35;4.95;;;;;;;;;;5011466;28;20552;-69
2023/10/13 08:08:42;;;;;;;11.88;5.13;;;;;;;;;;5005547;28;20083;-72
2023/10/13 08:13:53;;;;;;;12.55;5.30;;;;;;;;;;5003956;28;20037;-70
2023/10/13 08:16:22;;;;;;;15.18;5.25;;;;;;;;;;5008708;28;20009;-68
2023/10/13 08:18:51;;;;;;;11.07;5.20;;;;;;;;;;5018901;28;20071;-67
2023/10/13 08:21:22;;;;;;;15.00;5.05;;;;;;;;;;5026682;28;20040;-69
2023/10/13 08:37:28;;;;;;;11.65;5.03;;;;;;;;;;5019080;28;20009;-68
2023/10/13 08:45:07;;;;;;;10.13;5.00;;;;;;;;;;5031410;28;20021;-69
2023/10/13 08:47:36;;;;;;;13.00;4.88;;;;;;;;;;5029928;28;20029;-69
2023/10/13 08:50:10;;;;;;;17.73;4.88;;;;;;;;;;5033024;28;20028;-70
2023/10/13 08:52:49;;;;;;;26.50;8.95;;;;;;;;;;5037928;28;20025;-68
2023/10/13 08:56:00;;;;;;;12.95;5.47;;;;;;;;;;5031592;28;20013;-70
2023/10/13 08:58:13;;;;;;;11.18;5.07;;;;;;;;;;5029202;28;20029;-69
2023/10/13 09:00:55;;;;;;;13.00;4.63;;;;;;;;;;5031486;28;20034;-69
2023/10/13 09:03:28;;;;;;;13.85;5.90;;;;;;;;;;5024639;28;20025;-66
2023/10/13 09:06:06;;;;;;;16.02;5.65;;;;;;;;;;5029261;28;20025;-69
2023/10/13 09:08:58;;;;;;;21.52;5.15;;;;;;;;;;5031119;28;20477;-68
2023/10/13 09:11:26;;;;;;;13.75;4.65;;;;;;;;;;5031277;28;20044;-69
2023/10/13 09:13:52;;;;;;;21.05;5.65;;;;;;;;;;5034434;28;20067;-68
2023/10/13 09:16:52;;;;;;;13.43;4.88;;;;;;;;;;5030147;28;20021;-68
2023/10/13 09:19:11;;;;;;;26.05;5.20;;;;;;;;;;5030260;28;20412;-68
2023/10/13 09:24:18;;;;;;;13.85;5.80;;;;;;;;;;5028102;28;20026;-68
2023/10/13 09:26:44;;;;;;;15.95;5.57;;;;;;;;;;5029861;28;20130;-69
2023/10/13 09:29:18;;;;;;;12.65;5.70;;;;;;;;;;5036373;28;20108;-69
2023/10/13 09:31:44;;;;;;;19.48;6.90;;;;;;;;;;5027946;28;20228;-70
2023/10/13 09:34:10;;;;;;;23.13;5.97;;;;;;;;;;5030902;28;20063;-68
2023/10/13 09:36:35;;;;;;;11.15;5.20;;;;;;;;;;5031555;28;20038;-68
2023/10/13 09:39:12;;;;;;;12.60;5.55;;;;;;;;;;5029858;28;20088;-69
2023/10/13 09:41:39;;;;;;;22.30;5.45;;;;;;;;;;5036087;28;20022;-68
2023/10/13 09:44:08;;;;;;;17.80;5.32;;;;;;;;;;5034217;28;20036;-68
2023/10/13 09:46:35;;;;;;;;;;;;;;;;;;5037707;28;20040;-69
2023/10/13 09:49:14;;;;;;;21.70;5.47;;;;;;;;;;5030863;28;20391;-69
2023/10/13 09:51:44;;;;;;;;;;;;;;;;;;5024684;28;20048;-69
2023/10/13 09:54:17;;;;;;;14.52;5.35;;;;;;;;;;5031147;28;19905;-67
2023/10/13 09:56:51;;;;;;;14.68;5.88;;;;;;;;;;5029741;28;20108;-67
2023/10/13 09:59:40;;;;;;;15.93;4.97;;;;;;;;;;5023729;28;20021;-68
2023/10/13 10:02:09;;;;;;;14.90;5.00;;;;;;;;;;5029339;28;20032;-68
2023/10/13 10:04:44;;;;;;;11.75;5.18;;;;;;;;;;5021753;28;20030;-69
2023/10/13 10:07:09;;;;;;;12.68;5.22;;;;;;;;;;5030844;28;20017;-69
2023/10/13 10:09:34;;;;;;;17.85;6.05;;;;;;;;;;5031726;28;20039;-71
2023/10/13 10:12:18;;;;;;;9.82;4.55;;;;;;;;;;5031605;28;20040;-68
2023/10/13 10:15:02;;;;;;;19.23;4.22;;;;;;;;;;5037115;28;20025;-67
2023/10/13 10:17:29;;;;;;;17.00;5.30;;;;;;;;;;5024570;28;20516;-68
2023/10/13 10:19:56;;;;;;;17.70;5.25;;;;;;;;;;5029532;28;20029;-69
2023/10/13 10:22:27;;;;;;;12.40;5.32;;;;;;;;;;5030536;28;20025;-68
2023/10/13 10:24:56;;;;;;;16.63;4.90;;;;;;;;;;5036793;28;20111;-70
2023/10/13 10:27:25;;;;;;;11.48;4.85;;;;;;;;;;5028727;28;20039;-69
2023/10/13 10:29:50;;;;;;;;;;;;;;;;;;5030139;28;20022;-67
2023/10/13 10:32:15;;;;;;;14.48;5.22;;;;;;;;;;5027219;28;19909;-68
2023/10/13 10:34:41;;;;;;;17.88;4.75;;;;;;;;;;5029507;28;20390;-68
2023/10/13 10:37:09;;;;;;;18.83;5.35;;;;;;;;;;5025957;28;20025;-68
2023/10/13 10:39:44;;;;;;;14.13;5.05;;;;;;;;;;5029977;28;20431;-67
2023/10/13 10:42:15;;;;;;;16.08;4.97;;;;;;;;;;5011758;28;20017;-69
2023/10/13 10:44:42;;;;;;;16.48;5.38;;;;;;;;;;5029535;28;20021;-68
2023/10/13 10:47:36;;;;;;;20.90;5.73;;;;;;;;;;5035648;28;20013;-68
2023/10/13 10:50:19;;;;;;;20.00;5.00;;;;;;;;;;5027736;28;20093;-69
2023/10/13 10:52:44;;;;;;;19.23;6.03;;;;;;;;;;5029665;28;20018;-69
2023/10/13 10:55:14;;;;;;;14.18;4.50;;;;;;;;;;5027779;28;20020;-68
2023/10/13 10:57:43;;;;;;;18.75;4.60;;;;;;;;;;5029933;28;20029;-68
2023/10/13 11:00:19;;;;;;;15.20;4.45;;;;;;;;;;5037939;28;20096;-69
2023/10/13 11:02:53;;;;;;;14.05;4.53;;;;;;;;;;5029306;28;20335;-69
2023/10/13 11:05:19;;;;;;;20.65;4.68;;;;;;;;;;5020143;28;20032;-69
2023/10/13 11:07:49;;;;;;;14.32;4.45;;;;;;;;;;5029688;28;20033;-70
2023/10/13 11:10:27;;;;;;;14.85;4.72;;;;;;;;;;5020106;28;20020;-68
2023/10/13 11:13:21;;;;;;;20.00;4.88;;;;;;;;;;5026575;28;20014;-68
2023/10/13 11:15:47;;;;;;;11.30;3.88;;;;;;;;;;5029284;28;20027;-68
2023/10/13 11:18:16;;;;;;;13.43;4.35;;;;;;;;;;5028270;28;20013;-70
2023/10/13 11:20:44;;;;;;;15.73;4.78;;;;;;;;;;5028610;28;20026;-69
2023/10/13 11:23:09;;;;;;;;;;;;;;;;;;5026831;28;20025;-68
2023/10/13 11:25:37;;;;;;;15.05;5.25;;;;;;;;;;5028307;28;19917;-70
2023/10/13 11:28:28;;;;;;;15.13;4.93;;;;;;;;;;5022037;28;20037;-69
2023/10/13 11:30:58;;;;;;;15.93;5.07;;;;;;;;;;5026635;28;20049;-70
2023/10/13 11:33:23;;;;;;;11.73;5.63;;;;;;;;;;5028485;28;20101;-69
2023/10/13 11:35:55;;;;;;;18.20;4.93;;;;;;;;;;5028630;28;20557;-68
2023/10/13 11:38:27;;;;;;;17.13;5.97;;;;;;;;;;5029998;28;20052;-68
2023/10/13 11:48:38;;;;;;;10.80;4.03;;;;;;;;;;5009726;28;20112;-68
2023/10/13 11:51:07;;;;;;;14.30;4.85;;;;;;;;;;5009990;28;20036;-68
2023/10/13 11:53:34;;;;;;;26.75;4.47;;;;;;;;;;5011211;28;20029;-71
2023/10/13 11:55:59;;;;;;;18.85;3.90;;;;;;;;;;5009453;28;20030;-70
2023/10/13 11:58:24;;;;;;;21.08;4.25;;;;;;;;;;5011275;28;20041;-68
2023/10/13 12:01:20;;;;;;;14.02;3.60;;;;;;;;;;5010439;28;20568;-68
2023/10/13 12:11:44;;;;;;;21.48;3.78;;;;;;;;;;5028227;28;20025;-71
2023/10/13 12:14:21;;;;;;;17.65;4.32;;;;;;;;;;5030210;28;20056;-70
2023/10/13 12:16:52;;;;;;;20.13;4.70;;;;;;;;;;5029846;28;20041;-70
2023/10/13 12:19:18;;;;;;;18.40;3.95;;;;;;;;;;5029872;28;20025;-69
2023/10/13 12:21:48;;;;;;;24.20;5.55;;;;;;;;;;5030006;28;20018;-70
2023/10/13 12:24:30;;;;;;;22.80;4.50;;;;;;;;;;5032796;28;20021;-71
2023/10/13 12:26:56;;;;;;;20.77;4.60;;;;;;;;;;5033172;28;20032;-69
2023/10/13 12:29:23;;;;;;;12.38;3.83;;;;;;;;;;5034986;28;20017;-70
2023/10/13 12:32:05;;;;;;;20.23;3.95;;;;;;;;;;5032470;28;20061;-70
2023/10/13 12:34:57;;;;;;;22.08;4.07;;;;;;;;;;5029508;28;20028;-71
2023/10/13 12:51:19;;;;;;;21.58;5.78;;;;;;;;;;5034251;28;20056;-69
2023/10/13 12:53:48;;;;;;;26.33;5.03;;;;;;;;;;5032095;28;20029;-70
2023/10/13 12:56:14;;;;;;;18.83;4.45;;;;;;;;;;5034330;28;20013;-67
2023/10/13 12:58:39;;;;;;;21.42;4.07;;;;;;;;;;5035538;28;20021;-69
2023/10/13 13:01:07;;;;;;;17.52;4.90;;;;;;;;;;5034174;28;20033;-69
2023/10/13 13:03:32;;;;;;;14.63;4.40;;;;;;;;;;5034367;28;20535;-67
2023/10/13 13:05:58;;;;;;;10.13;3.60;;;;;;;;;;5033255;28;20037;-69
2023/10/13 13:08:23;;;;;;;11.32;3.83;;;;;;;;;;5034974;28;20025;-68
2023/10/13 13:10:48;;;;;;;17.77;4.50;;;;;;;;;;5033277;28;20017;-67
2023/10/13 13:13:16;;;;;;;13.30;4.32;;;;;;;;;;5031197;28;20013;-71
2023/10/13 13:15:41;;;;;;;14.82;4.45;;;;;;;;;;5025815;28;20018;-68
2023/10/13 13:18:11;;;;;;;13.93;4.00;;;;;;;;;;5035149;28;20098;-68
2023/10/13 13:20:39;;;;;;;15.95;4.50;;;;;;;;;;5028509;28;20076;-70
2023/10/13 13:23:04;;;;;;;10.65;4.25;;;;;;;;;;5030493;28;20040;-70
2023/10/13 13:25:33;;;;;;;15.20;4.85;;;;;;;;;;5025648;28;20037;-68
2023/10/13 13:28:04;;;;;;;21.05;4.90;;;;;;;;;;5025787;28;20025;-69
2023/10/13 13:30:33;;;;;;;15.82;4.60;;;;;;;;;;5024981;23;20056;-68
2023/10/13 13:33:03;;;;;;;11.65;4.30;;;;;;;;;;5002850;28;20018;-70
2023/10/13 13:35:33;;;;;;;17.60;4.35;;;;;;;;;;4999802;28;20158;-69
2023/10/13 13:38:06;;;;;;;17.17;4.35;;;;;;;;;;5006220;28;20018;-66
2023/10/13 13:40:34;;;;;;;12.27;5.15;;;;;;;;;;4980187;28;20493;-68
2023/10/13 13:43:00;;;;;;;14.63;4.53;;;;;;;;;;4998386;28;20080;-66
2023/10/13 13:45:28;;;;;;;10.75;3.90;;;;;;;;;;5001702;28;20486;-66
2023/10/13 13:47:54;;;;;;;18.17;4.82;;;;;;;;;;4999452;28;20026;-69
2023/10/13 13:50:24;;;;;;;16.85;4.07;;;;;;;;;;4998966;28;20035;-69
2023/10/13 13:52:52;;;;;;;14.45;4.47;;;;;;;;;;4995714;28;20091;-69
2023/10/13 13:55:17;;;;;;;15.15;4.82;;;;;;;;;;4998224;28;20450;-67
2023/10/13 13:57:43;;;;;;;13.40;3.95;;;;;;;;;;5001195;28;20053;-68
2023/10/13 14:00:16;;;;;;;21.92;4.97;;;;;;;;;;5001497;28;20218;-67
2023/10/13 14:02:47;;;;;;;17.23;4.72;;;;;;;;;;4997503;28;20466;-67
2023/10/13 14:05:15;;;;;;;14.98;4.35;;;;;;;;;;4997890;28;20026;-67
2023/10/13 14:07:40;;;;;;;17.25;4.10;;;;;;;;;;4995842;28;20018;-67
2023/10/13 14:10:07;;;;;;;24.20;4.20;;;;;;;;;;4979079;28;20022;-69
2023/10/13 14:12:44;;;;;;;13.20;4.00;;;;;;;;;;4994795;28;20033;-67
2023/10/13 14:15:19;;;;;;;10.13;3.88;;;;;;;;;;4981391;28;20165;-68
2023/10/13 14:17:46;;;;;;;7.68;3.60;;;;;;;;;;4983951;28;20386;-68
2023/10/13 14:20:15;;;;;;;11.55;3.78;;;;;;;;;;4981812;28;20081;-68
2023/10/13 14:22:41;;;;;;;16.17;3.55;;;;;;;;;;4986890;28;20429;-69
2023/10/13 14:25:08;;;;;;;9.93;3.83;;;;;;;;;;4979396;28;20041;-68
2023/10/13 14:27:35;;;;;;;11.93;4.95;;;;;;;;;;4982317;28;20146;-64
2023/10/13 14:30:00;;;;;;;14.82;4.00;;;;;;;;;;4980603;28;20073;-68
2023/10/13 14:32:27;;;;;;;14.15;3.67;;;;;;;;;;4980000;28;20586;-66
2023/10/13 14:34:56;;;;;;;14.20;4.80;;;;;;;;;;4983846;28;20076;-67
2023/10/13 14:37:29;;;;;;;10.75;4.28;;;;;;;;;;4977485;28;20379;-69
2023/10/13 14:39:58;;;;;;;17.73;4.32;;;;;;;;;;4985935;28;20105;-67
2023/10/13 14:42:23;;;;;;;;;;;;;;;;;;4988327;28;20026;-69
2023/10/13 14:44:55;;;;;;;10.20;3.88;;;;;;;;;;4984745;28;19971;-69
2023/10/13 14:47:24;;;;;;;13.85;4.00;;;;;;;;;;4978944;28;20048;-68
2023/10/13 14:49:49;;;;;;;12.52;4.70;;;;;;;;;;4974774;28;20041;-66
2023/10/13 14:52:17;;;;;;;15.57;5.65;;;;;;;;;;4982753;28;20031;-68
2023/10/13 14:54:42;;;;;;;19.25;4.60;;;;;;;;;;4981987;28;20108;-67
2023/10/13 14:57:08;;;;;;;8.38;4.18;;;;;;;;;;4974568;28;20109;-68
2023/10/13 14:59:33;;;;;;;16.27;4.10;;;;;;;;;;4981208;28;20185;-70
2023/10/13 15:01:59;;;;;;;18.48;4.22;;;;;;;;;;4975576;28;20030;-67
2023/10/13 15:04:25;;;;;;;12.23;4.30;;;;;;;;;;4974849;28;20023;-69
2023/10/13 15:06:50;;;;;;;13.55;4.25;;;;;;;;;;4961826;28;20030;-70
2023/10/13 15:09:23;;;;;;;14.95;4.53;;;;;;;;;;4984612;28;20453;-67
2023/10/13 15:11:48;;;;;;;9.75;3.63;;;;;;;;;;4985508;28;20104;-70
2023/10/13 15:14:13;;;;;;;9.02;3.92;;;;;;;;;;4965652;28;20014;-70
2023/10/13 15:16:39;;;;;;;16.10;4.47;;;;;;;;;;4981642;28;20018;-71
2023/10/13 15:19:06;;;;;;;11.25;3.92;;;;;;;;;;4980956;28;20716;-71
2023/10/13 15:21:34;;;;;;;11.25;3.83;;;;;;;;;;4977179;28;20051;-70
2023/10/13 15:24:14;;;;;;;14.88;4.43;;;;;;;;;;4977902;28;20031;-65
2023/10/13 15:26:44;;;;;;;14.75;4.20;;;;;;;;;;4978403;28;20103;-68
2023/10/13 15:29:12;;;;;;;13.38;3.50;;;;;;;;;;4980578;28;20018;-68
2023/10/13 15:31:37;;;;;;;14.40;3.80;;;;;;;;;;4977466;28;20481;-68
2023/10/13 15:34:07;;;;;;;11.38;3.78;;;;;;;;;;4977225;28;20015;-71
2023/10/13 15:36:35;;;;;;;12.90;4.05;;;;;;;;;;4983251;28;20062;-67
2023/10/13 15:39:00;;;;;;;8.63;4.13;;;;;;;;;;4961491;28;20023;-70
2023/10/13 15:41:26;;;;;;;18.90;4.13;;;;;;;;;;4971559;28;21605;-70
2023/10/13 15:43:52;;;;;;;15.65;4.80;;;;;;;;;;4982659;28;20084;-67
2023/10/13 15:46:22;;;;;;;15.95;3.88;;;;;;;;;;4969655;28;20036;-67
2023/10/13 15:48:47;;;;;;;;;;;;;;;;;;4982287;28;20128;-66
2023/10/13 15:51:13;;;;;;;10.50;3.72;;;;;;;;;;4972368;28;19913;-67
2023/10/13 15:53:39;;;;;;;15.23;4.93;;;;;;;;;;4972971;28;20062;-67
2023/10/13 15:56:11;;;;;;;16.83;3.85;;;;;;;;;;4956642;28;20014;-70
2023/10/13 15:58:40;;;;;;;13.70;4.18;;;;;;;;;;4960059;28;20034;-68
2023/10/13 16:01:07;;;;;;;12.45;4.55;;;;;;;;;;4978745;28;20050;-72
2023/10/13 16:03:33;;;;;;;13.95;4.40;;;;;;;;;;4982634;28;20086;-71
2023/10/13 16:06:01;;;;;;;8.25;4.05;;;;;;;;;;4977349;28;20030;-71
2023/10/13 16:08:26;;;;;;;14.98;4.20;;;;;;;;;;4976415;28;20041;-70
2023/10/13 16:10:51;;;;;;;13.30;4.57;;;;;;;;;;4974764;28;20031;-68
2023/10/13 16:13:19;;;;;;;13.85;4.50;;;;;;;;;;4979860;28;20015;-66
2023/10/13 16:15:47;;;;;;;16.92;4.53;;;;;;;;;;4980750;28;20091;-68
2023/10/13 16:18:12;;;;;;;14.02;3.92;;;;;;;;;;4982209;28;20578;-70
2023/10/13 16:20:38;;;;;;;11.75;3.47;;;;;;;;;;4957610;28;20151;-69
2023/10/13 16:23:05;;;;;;;14.93;3.72;;;;;;;;;;4986473;28;20041;-69
2023/10/13 16:25:30;;;;;;;13.63;3.92;;;;;;;;;;4985373;28;20041;-71
2023/10/13 16:27:55;;;;;;;12.02;3.38;;;;;;;;;;4963770;28;20030;-68
2023/10/13 16:30:21;;;;;;;8.57;3.38;;;;;;;;;;4978631;28;20133;-67
2023/10/13 16:32:46;;;;;;;15.60;4.05;;;;;;;;;;4987144;28;20116;-69
2023/10/13 16:35:20;;;;;;;13.30;3.45;;;;;;;;;;4960261;28;20010;-69
2023/10/13 16:37:51;;;;;;;16.52;3.60;;;;;;;;;;4975223;28;20119;-69
2023/10/13 16:40:20;;;;;;;12.60;3.60;;;;;;;;;;4979062;28;20071;-68
2023/10/13 16:42:46;;;;;;;10.63;3.72;;;;;;;;;;4971226;28;20114;-66
2023/10/13 16:45:14;;;;;;;12.95;3.60;;;;;;;;;;4955845;28;20125;-69
2023/10/13 16:47:46;;;;;;;12.45;3.95;;;;;;;;;;4981311;28;20048;-70
2023/10/13 16:50:14;;;;;;;14.30;4.35;;;;;;;;;;4972802;28;20098;-66
2023/10/13 16:52:40;;;;;;;16.77;4.40;;;;;;;;;;4981771;28;20040;-71
2023/10/13 16:55:07;;;;;;;13.75;3.65;;;;;;;;;;4977110;28;21171;-70
2023/10/13 16:57:32;;;;;;;13.13;4.28;;;;;;;;;;4982866;28;20446;-68
2023/10/13 16:59:57;;;;;;;11.75;4.28;;;;;;;;;;4985393;28;20041;-70
2023/10/13 17:02:23;;;;;;;12.85;4.32;;;;;;;;;;4984871;28;20037;-68
2023/10/13 17:04:48;;;;;;;13.82;4.43;;;;;;;;;;4979928;28;20029;-69
2023/10/13 17:07:14;;;;;;;18.85;4.53;;;;;;;;;;4985678;28;20033;-69
2023/10/13 17:09:39;;;;;;;10.85;3.92;;;;;;;;;;4988184;28;20632;-70
2023/10/13 17:12:05;;;;;;;21.70;4.38;;;;;;;;;;4983212;28;20066;-68
2023/10/13 17:14:30;;;;;;;11.55;3.95;;;;;;;;;;4984323;28;20030;-70
2023/10/13 17:16:57;;;;;;;12.77;3.60;;;;;;;;;;4985799;28;20014;-69
2023/10/13 17:19:22;;;;;;;13.50;3.78;;;;;;;;;;4987709;28;20030;-72
2023/10/13 17:21:48;;;;;;;12.73;3.95;;;;;;;;;;4985863;28;20030;-69
2023/10/13 17:24:14;;;;;;;9.93;3.47;;;;;;;;;;4988443;28;20029;-66
2023/10/13 17:26:39;;;;;;;14.63;4.38;;;;;;;;;;4984472;28;20022;-69
2023/10/13 17:29:09;;;;;;;15.57;4.38;;;;;;;;;;4982663;28;20037;-69
2023/10/13 17:31:34;;;;;;;10.70;4.00;;;;;;;;;;4981740;28;20022;-67
2023/10/13 17:33:59;;;;;;;12.07;3.92;;;;;;;;;;4982872;28;20037;-66
2023/10/13 17:36:28;;;;;;;10.95;4.13;;;;;;;;;;4987309;28;20045;-71
2023/10/13 17:38:53;;;;;;;;;;;;;;;;;;4978007;28;20637;-68
2023/10/13 17:41:20;;;;;;;17.97;3.73;;;;;;;;;;4984647;28;20009;-68
2023/10/13 17:43:45;;;;;;;11.27;3.90;;;;;;;;;;4983130;28;21456;-67
2023/10/13 17:46:12;;;;;;;8.85;3.40;;;;;;;;;;4981849;28;20014;-70
2023/10/13 17:48:37;;;;;;;11.20;3.83;;;;;;;;;;4983087;28;20383;-72
2023/10/13 17:51:04;;;;;;;13.98;4.55;;;;;;;;;;4986171;28;20041;-68